createdAt,value
2023-05-03T00:00:34.755Z,818.40
2023-05-03T00:01:34.774Z,818.39
2023-05-03T00:02:34.916Z,818.36
2023-05-03T00:03:34.764Z,818.38
2023-05-03T00:04:34.787Z,818.38
2023-05-03T00:05:34.851Z,818.38
2023-05-03T00:06:34.859Z,818.39
2023-05-03T00:07:34.795Z,818.42
2023-05-03T00:08:34.809Z,818.44
2023-05-03T00:09:34.846Z,818.42
2023-05-03T00:10:34.838Z,818.39
2023-05-03T00:11:34.842Z,818.44
2023-05-03T00:12:34.862Z,818.42
2023-05-03T00:13:34.875Z,818.39
2023-05-03T00:14:34.866Z,818.39
2023-05-03T00:15:34.863Z,818.41
2023-05-03T00:16:34.923Z,818.38
2023-05-03T00:17:34.892Z,818.38
2023-05-03T00:18:34.896Z,818.41
2023-05-03T00:19:34.900Z,818.39
2023-05-03T00:20:34.907Z,818.35
2023-05-03T00:21:34.918Z,818.36
2023-05-03T00:22:34.956Z,818.36
2023-05-03T00:23:34.958Z,818.42
2023-05-03T00:24:34.945Z,818.37
2023-05-03T00:25:34.950Z,818.38
2023-05-03T00:26:34.959Z,818.38
2023-05-03T00:27:34.972Z,818.39
2023-05-03T00:28:34.975Z,818.41
2023-05-03T00:29:35.006Z,818.41
2023-05-03T00:30:34.999Z,818.38
2023-05-03T00:31:35.048Z,818.37
2023-05-03T00:32:35.017Z,818.36
2023-05-03T00:33:35.013Z,818.32
2023-05-03T00:34:35.030Z,818.36
2023-05-03T00:35:35.032Z,818.33
2023-05-03T00:36:36.991Z,818.32
2023-05-03T00:37:35.047Z,818.29
2023-05-03T00:38:35.061Z,818.28
2023-05-03T00:39:35.064Z,818.30
2023-05-03T00:40:35.075Z,818.25
2023-05-03T00:41:35.081Z,818.27
2023-05-03T00:42:35.096Z,818.26
2023-05-03T00:43:35.097Z,818.25
2023-05-03T00:44:35.105Z,818.25
2023-05-03T00:45:35.152Z,818.25
2023-05-03T00:46:35.151Z,818.23
2023-05-03T00:47:35.267Z,818.19
2023-05-03T00:48:35.142Z,818.24
2023-05-03T00:49:35.148Z,818.18
2023-05-03T00:50:35.154Z,818.17
2023-05-03T00:51:35.161Z,818.17
2023-05-03T00:52:35.180Z,818.18
2023-05-03T00:53:35.180Z,818.17
2023-05-03T00:54:35.271Z,818.14
2023-05-03T00:55:35.195Z,818.14
2023-05-03T00:56:44.452Z,818.16
2023-05-03T00:57:35.207Z,818.17
2023-05-03T00:58:35.223Z,818.17
2023-05-03T00:59:35.226Z,818.12
2023-05-03T01:00:35.237Z,818.14
2023-05-03T01:01:35.309Z,818.12
2023-05-03T01:02:35.310Z,818.16
2023-05-03T01:03:35.363Z,818.14
2023-05-03T01:04:35.268Z,818.11
2023-05-03T01:05:35.274Z,818.11
2023-05-03T01:06:35.338Z,818.12
2023-05-03T01:07:35.287Z,818.09
2023-05-03T01:08:35.296Z,818.10
2023-05-03T01:09:35.303Z,818.10
2023-05-03T01:10:35.313Z,818.06
2023-05-03T01:11:35.317Z,818.07
2023-05-03T01:12:35.334Z,818.03
2023-05-03T01:13:35.340Z,818.05
2023-05-03T01:14:35.346Z,818.05
2023-05-03T01:15:35.348Z,818.06
2023-05-03T01:16:35.418Z,818.06
2023-05-03T01:17:35.399Z,818.04
2023-05-03T01:18:35.384Z,818.03
2023-05-03T01:19:35.384Z,818.05
2023-05-03T01:20:35.394Z,818.01
2023-05-03T01:21:35.403Z,817.98
2023-05-03T01:22:35.415Z,818.00
2023-05-03T01:23:35.411Z,817.97
2023-05-03T01:24:35.428Z,817.99
2023-05-03T01:25:35.438Z,818.03
2023-05-03T01:26:35.466Z,818.01
2023-05-03T01:27:35.454Z,818.01
2023-05-03T01:28:35.456Z,817.98
2023-05-03T01:29:35.462Z,817.98
2023-05-03T01:30:35.469Z,817.98
2023-05-03T01:31:35.518Z,817.99
2023-05-03T01:32:35.564Z,817.99
2023-05-03T01:33:35.507Z,817.97
2023-05-03T01:34:35.507Z,817.99
2023-05-03T01:35:35.526Z,818.00
2023-05-03T01:36:35.526Z,818.01
2023-05-03T01:37:35.528Z,817.99
2023-05-03T01:38:35.534Z,818.06
2023-05-03T01:39:35.547Z,818.04
2023-05-03T01:40:35.551Z,818.00
2023-05-03T01:41:35.554Z,818.03
2023-05-03T01:42:35.565Z,818.04
2023-05-03T01:43:35.573Z,818.00
2023-05-03T01:44:35.581Z,817.99
2023-05-03T01:45:35.634Z,817.96
2023-05-03T01:46:35.607Z,817.97
2023-05-03T01:47:35.637Z,817.97
2023-05-03T01:48:35.614Z,817.98
2023-05-03T01:49:35.638Z,818.00
2023-05-03T01:50:35.634Z,817.97
2023-05-03T01:51:35.634Z,817.98
2023-05-03T01:52:35.643Z,817.98
2023-05-03T01:53:35.668Z,817.97
2023-05-03T01:54:35.660Z,817.97
2023-05-03T01:55:35.666Z,817.99
2023-05-03T01:56:35.676Z,817.96
2023-05-03T01:57:35.681Z,817.97
2023-05-03T01:58:35.690Z,818.00
2023-05-03T01:59:35.693Z,817.99
2023-05-03T02:00:35.710Z,817.97
2023-05-03T02:01:35.823Z,817.96
2023-05-03T02:02:35.788Z,817.95
2023-05-03T02:03:35.759Z,817.97
2023-05-03T02:04:35.769Z,817.98
2023-05-03T02:05:35.765Z,817.95
2023-05-03T02:06:35.868Z,817.97
2023-05-03T02:07:35.754Z,817.93
2023-05-03T02:08:35.766Z,817.92
2023-05-03T02:09:35.771Z,817.96
2023-05-03T02:10:35.802Z,817.97
2023-05-03T02:11:35.785Z,817.96
2023-05-03T02:12:35.834Z,817.95
2023-05-03T02:13:35.798Z,817.95
2023-05-03T02:14:35.829Z,817.97
2023-05-03T02:15:35.826Z,817.96
2023-05-03T02:16:35.988Z,817.94
2023-05-03T02:17:35.874Z,817.98
2023-05-03T02:18:35.848Z,818.03
2023-05-03T02:19:35.851Z,818.00
2023-05-03T02:20:35.856Z,817.98
2023-05-03T02:21:35.891Z,817.98
2023-05-03T02:22:35.875Z,817.98
2023-05-03T02:23:35.872Z,818.02
2023-05-03T02:24:35.886Z,818.00
2023-05-03T02:25:35.887Z,818.04
2023-05-03T02:26:35.910Z,818.03
2023-05-03T02:27:35.912Z,818.06
2023-05-03T02:28:35.923Z,818.07
2023-05-03T02:29:35.942Z,818.06
2023-05-03T02:30:35.998Z,818.05
2023-05-03T02:31:36.035Z,818.07
2023-05-03T02:32:36.023Z,818.06
2023-05-03T02:33:35.954Z,818.03
2023-05-03T02:34:35.958Z,818.01
2023-05-03T02:35:35.961Z,818.02
2023-05-03T02:36:35.975Z,818.04
2023-05-03T02:37:35.997Z,818.01
2023-05-03T02:38:35.991Z,817.99
2023-05-03T02:39:35.990Z,817.97
2023-05-03T02:40:36.003Z,817.95
2023-05-03T02:41:36.004Z,817.95
2023-05-03T02:42:36.043Z,817.93
2023-05-03T02:43:36.024Z,817.94
2023-05-03T02:44:36.031Z,817.91
2023-05-03T02:45:36.041Z,817.92
2023-05-03T02:46:36.137Z,817.95
2023-05-03T02:47:36.086Z,817.97
2023-05-03T02:48:36.062Z,817.95
2023-05-03T02:49:36.071Z,817.95
2023-05-03T02:50:36.074Z,817.96
2023-05-03T02:51:36.086Z,817.96
2023-05-03T02:52:36.091Z,817.93
2023-05-03T02:53:36.127Z,817.93
2023-05-03T02:54:36.104Z,817.90
2023-05-03T02:55:36.112Z,817.90
2023-05-03T02:56:36.113Z,817.88
2023-05-03T02:57:36.130Z,817.91
2023-05-03T02:58:36.173Z,817.86
2023-05-03T02:59:36.143Z,817.86
2023-05-03T03:00:36.146Z,817.83
2023-05-03T03:01:36.246Z,817.83
2023-05-03T03:02:36.257Z,817.79
2023-05-03T03:03:36.347Z,817.77
2023-05-03T03:04:36.176Z,817.78
2023-05-03T03:05:36.185Z,817.81
2023-05-03T03:06:36.309Z,817.75
2023-05-03T03:07:36.196Z,817.79
2023-05-03T03:08:36.204Z,817.77
2023-05-03T03:09:36.237Z,817.74
2023-05-03T03:10:36.222Z,817.75
2023-05-03T03:11:36.232Z,817.77
2023-05-03T03:12:36.234Z,817.77
2023-05-03T03:13:36.244Z,817.79
2023-05-03T03:14:36.247Z,817.81
2023-05-03T03:15:36.257Z,817.77
2023-05-03T03:16:36.365Z,817.82
2023-05-03T03:17:36.326Z,817.79
2023-05-03T03:18:36.281Z,817.81
2023-05-03T03:19:36.290Z,817.73
2023-05-03T03:20:36.291Z,817.73
2023-05-03T03:21:36.316Z,817.70
2023-05-03T03:22:36.305Z,817.74
2023-05-03T03:23:36.332Z,817.73
2023-05-03T03:24:36.331Z,817.71
2023-05-03T03:25:36.351Z,817.72
2023-05-03T03:26:36.337Z,817.76
2023-05-03T03:27:38.420Z,817.75
2023-05-03T03:28:36.354Z,817.72
2023-05-03T03:29:36.361Z,817.77
2023-05-03T03:30:36.372Z,817.75
2023-05-03T03:31:36.418Z,817.70
2023-05-03T03:32:36.421Z,817.75
2023-05-03T03:33:36.394Z,817.71
2023-05-03T03:34:36.394Z,817.73
2023-05-03T03:35:36.410Z,817.71
2023-05-03T03:36:36.411Z,817.73
2023-05-03T03:37:36.426Z,817.76
2023-05-03T03:38:36.427Z,817.72
2023-05-03T03:39:36.437Z,817.71
2023-05-03T03:40:36.444Z,817.75
2023-05-03T03:41:36.481Z,817.75
2023-05-03T03:42:36.457Z,817.70
2023-05-03T03:43:36.467Z,817.71
2023-05-03T03:44:36.469Z,817.75
2023-05-03T03:45:36.487Z,817.72
2023-05-03T03:46:36.507Z,817.69
2023-05-03T03:47:36.504Z,817.66
2023-05-03T03:48:36.507Z,817.65
2023-05-03T03:49:36.509Z,817.67
2023-05-03T03:50:36.512Z,817.65
2023-05-03T03:51:36.535Z,817.64
2023-05-03T03:52:36.535Z,817.65
2023-05-03T03:53:36.557Z,817.69
2023-05-03T03:54:36.542Z,817.68
2023-05-03T03:55:36.551Z,817.66
2023-05-03T03:56:36.558Z,817.69
2023-05-03T03:57:36.602Z,817.67
2023-05-03T03:58:36.580Z,817.67
2023-05-03T03:59:36.581Z,817.65
2023-05-03T04:00:36.585Z,817.71
2023-05-03T04:01:36.598Z,817.70
2023-05-03T04:02:36.774Z,817.68
2023-05-03T04:03:36.743Z,817.64
2023-05-03T04:04:36.654Z,817.65
2023-05-03T04:05:36.663Z,817.68
2023-05-03T04:06:36.656Z,817.67
2023-05-03T04:07:36.646Z,817.63
2023-05-03T04:08:36.640Z,817.66
2023-05-03T04:09:36.658Z,817.65
2023-05-03T04:10:36.661Z,817.65
2023-05-03T04:11:36.670Z,817.61
2023-05-03T04:12:36.674Z,817.65
2023-05-03T04:13:36.701Z,817.65
2023-05-03T04:14:36.693Z,817.67
2023-05-03T04:15:36.697Z,817.63
2023-05-03T04:16:36.749Z,817.62
2023-05-03T04:17:36.732Z,817.65
2023-05-03T04:18:36.729Z,817.66
2023-05-03T04:19:36.739Z,817.64
2023-05-03T04:20:36.748Z,817.69
2023-05-03T04:21:36.752Z,817.67
2023-05-03T04:22:36.748Z,817.70
2023-05-03T04:23:36.757Z,817.69
2023-05-03T04:24:36.759Z,817.69
2023-05-03T04:25:36.781Z,817.63
2023-05-03T04:26:36.771Z,817.65
2023-05-03T04:27:36.787Z,817.65
2023-05-03T04:28:36.800Z,817.60
2023-05-03T04:29:36.828Z,817.64
2023-05-03T04:30:36.851Z,817.64
2023-05-03T04:31:36.811Z,817.68
2023-05-03T04:32:36.835Z,817.71
2023-05-03T04:33:36.852Z,817.67
2023-05-03T04:34:36.824Z,817.71
2023-05-03T04:35:36.843Z,817.70
2023-05-03T04:36:36.862Z,817.70
2023-05-03T04:37:36.852Z,817.73
2023-05-03T04:38:36.877Z,817.76
2023-05-03T04:39:36.871Z,817.77
2023-05-03T04:40:36.871Z,817.74
2023-05-03T04:41:36.884Z,817.80
2023-05-03T04:42:36.887Z,817.78
2023-05-03T04:43:36.896Z,817.76
2023-05-03T04:44:36.906Z,817.78
2023-05-03T04:45:36.936Z,817.78
2023-05-03T04:46:37.052Z,817.82
2023-05-03T04:47:37.013Z,817.81
2023-05-03T04:48:36.926Z,817.81
2023-05-03T04:49:36.951Z,817.82
2023-05-03T04:50:36.943Z,817.79
2023-05-03T04:51:36.966Z,817.84
2023-05-03T04:52:36.962Z,817.84
2023-05-03T04:53:36.976Z,817.85
2023-05-03T04:54:36.997Z,817.84
2023-05-03T04:55:36.989Z,817.88
2023-05-03T04:56:36.986Z,817.91
2023-05-03T04:57:37.010Z,817.88
2023-05-03T04:58:37.041Z,817.90
2023-05-03T04:59:37.013Z,817.92
2023-05-03T05:00:37.012Z,817.93
2023-05-03T05:01:37.120Z,817.94
2023-05-03T05:02:37.070Z,817.97
2023-05-03T05:03:37.088Z,817.98
2023-05-03T05:04:37.043Z,817.95
2023-05-03T05:05:37.061Z,817.97
2023-05-03T05:06:37.126Z,817.96
2023-05-03T05:07:37.067Z,817.98
2023-05-03T05:08:37.070Z,817.98
2023-05-03T05:09:37.086Z,817.97
2023-05-03T05:10:37.090Z,817.97
2023-05-03T05:11:37.111Z,818.03
2023-05-03T05:12:37.109Z,818.03
2023-05-03T05:13:37.111Z,818.03
2023-05-03T05:14:37.112Z,818.05
2023-05-03T05:15:37.128Z,818.04
2023-05-03T05:16:37.174Z,818.06
2023-05-03T05:17:37.396Z,818.02
2023-05-03T05:18:37.196Z,818.10
2023-05-03T05:19:37.163Z,818.06
2023-05-03T05:20:37.157Z,818.06
2023-05-03T05:21:37.172Z,818.03
2023-05-03T05:22:37.185Z,818.06
2023-05-03T05:23:37.192Z,818.10
2023-05-03T05:24:37.194Z,818.09
2023-05-03T05:25:37.208Z,818.09
2023-05-03T05:26:37.196Z,818.09
2023-05-03T05:27:37.208Z,818.11
2023-05-03T05:28:37.219Z,818.13
2023-05-03T05:29:37.227Z,818.16
2023-05-03T05:30:37.237Z,818.18
2023-05-03T05:31:37.295Z,818.19
2023-05-03T05:32:37.291Z,818.20
2023-05-03T05:33:37.275Z,818.22
2023-05-03T05:34:44.937Z,818.19
2023-05-03T05:35:37.264Z,818.22
2023-05-03T05:36:37.273Z,818.26
2023-05-03T05:37:37.291Z,818.23
2023-05-03T05:38:37.289Z,818.26
2023-05-03T05:39:37.296Z,818.28
2023-05-03T05:40:37.299Z,818.26
2023-05-03T05:41:37.321Z,818.29
2023-05-03T05:42:37.317Z,818.30
2023-05-03T05:43:37.326Z,818.26
2023-05-03T05:44:37.329Z,818.30
2023-05-03T05:45:37.345Z,818.29
2023-05-03T05:46:37.463Z,818.30
2023-05-03T05:47:37.461Z,818.29
2023-05-03T05:48:37.363Z,818.32
2023-05-03T05:49:37.433Z,818.27
2023-05-03T05:50:37.373Z,818.31
2023-05-03T05:51:37.383Z,818.31
2023-05-03T05:52:37.395Z,818.28
2023-05-03T05:53:37.399Z,818.28
2023-05-03T05:54:37.405Z,818.32
2023-05-03T05:55:37.420Z,818.31
2023-05-03T05:56:37.431Z,818.31
2023-05-03T05:57:37.438Z,818.33
2023-05-03T05:58:37.571Z,818.32
2023-05-03T05:59:37.450Z,818.32
2023-05-03T06:00:37.451Z,818.34
2023-05-03T06:01:37.477Z,818.37
2023-05-03T06:02:37.709Z,818.35
2023-05-03T06:03:37.476Z,818.33
2023-05-03T06:04:37.489Z,818.30
2023-05-03T06:05:37.648Z,818.33
2023-05-03T06:06:37.514Z,818.34
2023-05-03T06:07:37.505Z,818.31
2023-05-03T06:08:37.511Z,818.31
2023-05-03T06:09:37.524Z,818.31
2023-05-03T06:10:37.521Z,818.33
2023-05-03T06:11:37.542Z,818.29
2023-05-03T06:12:37.544Z,818.29
2023-05-03T06:13:37.546Z,818.31
2023-05-03T06:14:37.556Z,818.31
2023-05-03T06:15:37.584Z,818.30
2023-05-03T06:16:37.610Z,818.28
2023-05-03T06:17:37.650Z,818.29
2023-05-03T06:18:37.581Z,818.32
2023-05-03T06:19:37.593Z,818.36
2023-05-03T06:20:37.604Z,818.35
2023-05-03T06:21:37.629Z,818.34
2023-05-03T06:22:37.614Z,818.36
2023-05-03T06:23:37.626Z,818.38
2023-05-03T06:24:37.629Z,818.33
2023-05-03T06:25:37.640Z,818.33
2023-05-03T06:26:37.653Z,818.33
2023-05-03T06:27:37.656Z,818.38
2023-05-03T06:28:37.676Z,818.38
2023-05-03T06:29:37.672Z,818.38
2023-05-03T06:30:37.682Z,818.41
2023-05-03T06:31:37.861Z,818.43
2023-05-03T06:32:37.808Z,818.46
2023-05-03T06:33:37.696Z,818.45
2023-05-03T06:34:37.711Z,818.46
2023-05-03T06:35:37.734Z,818.46
2023-05-03T06:36:37.716Z,818.45
2023-05-03T06:37:37.757Z,818.47
2023-05-03T06:38:37.730Z,818.49
2023-05-03T06:39:37.763Z,818.42
2023-05-03T06:40:38.566Z,818.45
2023-05-03T06:41:37.763Z,818.43
2023-05-03T06:42:37.765Z,818.43
2023-05-03T06:43:37.786Z,818.46
2023-05-03T06:44:37.779Z,818.43
2023-05-03T06:45:37.789Z,818.46
2023-05-03T06:46:37.858Z,818.44
2023-05-03T06:47:37.848Z,818.40
2023-05-03T06:48:37.843Z,818.39
2023-05-03T06:49:37.831Z,818.40
2023-05-03T06:50:37.819Z,818.44
2023-05-03T06:51:37.840Z,818.40
2023-05-03T06:52:37.834Z,818.42
2023-05-03T06:53:37.871Z,818.44
2023-05-03T06:54:37.851Z,818.41
2023-05-03T06:55:37.860Z,818.45
2023-05-03T06:56:37.894Z,818.44
2023-05-03T06:57:37.875Z,818.43
2023-05-03T06:58:37.887Z,818.43
2023-05-03T06:59:37.892Z,818.42
2023-05-03T07:00:37.906Z,818.38
2023-05-03T07:01:37.962Z,818.44
2023-05-03T07:02:38.035Z,818.40
2023-05-03T07:03:40.109Z,818.37
2023-05-03T07:04:37.949Z,818.42
2023-05-03T07:05:37.940Z,818.40
2023-05-03T07:06:44.644Z,818.40
2023-05-03T07:07:37.985Z,818.40
2023-05-03T07:08:37.962Z,818.39
2023-05-03T07:09:43.252Z,818.43
2023-05-03T07:10:37.988Z,818.43
2023-05-03T07:11:37.999Z,818.43
2023-05-03T07:12:37.992Z,818.40
2023-05-03T07:13:37.996Z,818.39
2023-05-03T07:14:38.010Z,818.39
2023-05-03T07:15:38.014Z,818.35
2023-05-03T07:16:38.053Z,818.38
2023-05-03T07:17:38.097Z,818.39
2023-05-03T07:18:38.041Z,818.35
2023-05-03T07:19:38.043Z,818.35
2023-05-03T07:20:38.055Z,818.34
2023-05-03T07:21:38.064Z,818.35
2023-05-03T07:22:38.091Z,818.39
2023-05-03T07:23:38.076Z,818.34
2023-05-03T07:24:38.129Z,818.34
2023-05-03T07:25:38.233Z,818.37
2023-05-03T07:26:38.175Z,818.32
2023-05-03T07:27:38.134Z,818.36
2023-05-03T07:28:38.120Z,818.35
2023-05-03T07:29:38.136Z,818.39
2023-05-03T07:30:38.136Z,818.37
2023-05-03T07:31:38.138Z,818.38
2023-05-03T07:32:38.279Z,818.36
2023-05-03T07:33:38.266Z,818.35
2023-05-03T07:34:38.164Z,818.34
2023-05-03T07:35:38.173Z,818.34
2023-05-03T07:36:38.191Z,818.35
2023-05-03T07:37:38.264Z,818.34
2023-05-03T07:38:38.204Z,818.33
2023-05-03T07:39:38.205Z,818.30
2023-05-03T07:40:38.227Z,818.29
2023-05-03T07:41:38.246Z,818.26
2023-05-03T07:42:38.232Z,818.28
2023-05-03T07:43:38.235Z,818.26
2023-05-03T07:44:38.258Z,818.21
2023-05-03T07:45:38.349Z,818.27
2023-05-03T07:46:38.263Z,818.23
2023-05-03T07:47:38.323Z,818.25
2023-05-03T07:48:38.286Z,818.25
2023-05-03T07:49:38.286Z,818.25
2023-05-03T07:50:38.298Z,818.24
2023-05-03T07:51:38.309Z,818.22
2023-05-03T07:52:38.330Z,818.23
2023-05-03T07:53:38.321Z,818.25
2023-05-03T07:54:38.329Z,818.24
2023-05-03T07:55:38.338Z,818.23
2023-05-03T07:56:38.356Z,818.20
2023-05-03T07:57:38.462Z,818.23
2023-05-03T07:58:40.468Z,818.23
2023-05-03T07:59:38.370Z,818.17
2023-05-03T08:00:38.381Z,818.20
2023-05-03T08:01:38.436Z,818.23
2023-05-03T08:02:38.473Z,818.24
2023-05-03T08:03:38.654Z,818.23
2023-05-03T08:04:38.639Z,818.24
2023-05-03T08:05:38.444Z,818.22
2023-05-03T08:06:38.556Z,818.28
2023-05-03T08:07:38.441Z,818.22
2023-05-03T08:08:38.452Z,818.25
2023-05-03T08:09:38.472Z,818.25
2023-05-03T08:10:38.468Z,818.30
2023-05-03T08:11:38.479Z,818.26
2023-05-03T08:12:38.486Z,818.28
2023-05-03T08:13:38.546Z,818.23
2023-05-03T08:14:38.509Z,818.20
2023-05-03T08:15:38.526Z,818.18
2023-05-03T08:16:38.565Z,818.16
2023-05-03T08:17:38.611Z,818.20
2023-05-03T08:18:38.584Z,818.22
2023-05-03T08:19:38.590Z,818.24
2023-05-03T08:20:38.560Z,818.20
2023-05-03T08:21:38.565Z,818.21
2023-05-03T08:22:38.620Z,818.25
2023-05-03T08:23:38.597Z,818.21
2023-05-03T08:24:38.595Z,818.18
2023-05-03T08:25:38.602Z,818.16
2023-05-03T08:26:38.620Z,818.17
2023-05-03T08:27:38.617Z,818.18
2023-05-03T08:28:38.632Z,818.18
2023-05-03T08:29:38.666Z,818.10
2023-05-03T08:30:38.652Z,818.06
2023-05-03T08:31:38.768Z,818.10
2023-05-03T08:32:38.735Z,818.08
2023-05-03T08:33:38.681Z,818.07
2023-05-03T08:34:38.685Z,818.08
2023-05-03T08:35:38.692Z,818.06
2023-05-03T08:36:38.704Z,818.09
2023-05-03T08:37:38.711Z,818.06
2023-05-03T08:38:38.723Z,818.10
2023-05-03T08:39:38.729Z,818.06
2023-05-03T08:40:38.740Z,818.04
2023-05-03T08:41:38.747Z,818.03
2023-05-03T08:42:38.760Z,818.03
2023-05-03T08:43:38.768Z,818.07
2023-05-03T08:44:38.785Z,818.03
2023-05-03T08:45:39.081Z,818.03
2023-05-03T08:46:38.948Z,817.98
2023-05-03T08:47:38.896Z,817.99
2023-05-03T08:48:38.816Z,818.01
2023-05-03T08:49:38.827Z,818.06
2023-05-03T08:50:38.838Z,818.06
2023-05-03T08:51:38.840Z,818.08
2023-05-03T08:52:38.859Z,818.13
2023-05-03T08:53:38.862Z,818.11
2023-05-03T08:54:38.900Z,818.19
2023-05-03T08:55:38.936Z,818.13
2023-05-03T08:56:38.890Z,818.15
2023-05-03T08:57:38.902Z,818.10
2023-05-03T08:58:38.911Z,818.13
2023-05-03T08:59:38.915Z,818.13
2023-05-03T09:00:38.932Z,818.12
2023-05-03T09:01:39.086Z,818.15
2023-05-03T09:02:39.038Z,818.18
2023-05-03T09:03:39.060Z,818.23
2023-05-03T09:04:38.976Z,818.24
2023-05-03T09:05:39.125Z,818.19
2023-05-03T09:06:39.079Z,818.22
2023-05-03T09:07:38.999Z,818.13
2023-05-03T09:08:39.006Z,818.17
2023-05-03T09:09:39.017Z,818.14
2023-05-03T09:10:39.025Z,818.16
2023-05-03T09:11:39.169Z,818.16
2023-05-03T09:12:39.051Z,818.16
2023-05-03T09:13:39.052Z,818.22
2023-05-03T09:14:39.071Z,818.18
2023-05-03T09:15:39.089Z,818.14
2023-05-03T09:16:39.219Z,818.15
2023-05-03T09:17:39.162Z,818.17
2023-05-03T09:18:39.108Z,818.19
2023-05-03T09:19:39.114Z,818.14
2023-05-03T09:20:39.128Z,818.16
2023-05-03T09:21:39.136Z,818.16
2023-05-03T09:22:39.146Z,818.23
2023-05-03T09:23:39.156Z,818.20
2023-05-03T09:24:39.169Z,818.21
2023-05-03T09:25:39.176Z,818.21
2023-05-03T09:26:39.209Z,818.24
2023-05-03T09:27:39.200Z,818.25
2023-05-03T09:28:39.215Z,818.21
2023-05-03T09:29:39.221Z,818.23
2023-05-03T09:30:39.231Z,818.18
2023-05-03T09:31:39.289Z,818.21
2023-05-03T09:32:39.290Z,818.19
2023-05-03T09:33:39.297Z,818.21
2023-05-03T09:34:39.279Z,818.20
2023-05-03T09:35:39.282Z,818.15
2023-05-03T09:36:39.298Z,818.20
2023-05-03T09:37:39.306Z,818.23
2023-05-03T09:38:39.337Z,818.20
2023-05-03T09:39:39.325Z,818.20
2023-05-03T09:40:39.337Z,818.22
2023-05-03T09:41:39.359Z,818.22
2023-05-03T09:42:39.362Z,818.21
2023-05-03T09:43:39.378Z,818.25
2023-05-03T09:44:39.381Z,818.21
2023-05-03T09:45:39.415Z,818.16
2023-05-03T09:46:39.450Z,818.22
2023-05-03T09:47:39.442Z,818.22
2023-05-03T09:48:39.432Z,818.25
2023-05-03T09:49:39.467Z,818.29
2023-05-03T09:50:39.461Z,818.21
2023-05-03T09:51:39.471Z,818.25
2023-05-03T09:52:39.471Z,818.26
2023-05-03T09:53:39.482Z,818.22
2023-05-03T09:54:39.500Z,818.26
2023-05-03T09:55:39.502Z,818.20
2023-05-03T09:56:39.518Z,818.23
2023-05-03T09:57:39.525Z,818.23
2023-05-03T09:58:39.540Z,818.20
2023-05-03T09:59:39.560Z,818.21
2023-05-03T10:00:39.561Z,818.24
2023-05-03T10:01:39.593Z,818.24
2023-05-03T10:02:39.620Z,818.23
2023-05-03T10:03:39.611Z,818.20
2023-05-03T10:04:39.614Z,818.23
2023-05-03T10:05:39.650Z,818.26
2023-05-03T10:06:39.663Z,818.24
2023-05-03T10:07:39.639Z,818.24
2023-05-03T10:08:39.651Z,818.29
2023-05-03T10:09:39.669Z,818.27
2023-05-03T10:10:39.677Z,818.29
2023-05-03T10:11:39.712Z,818.31
2023-05-03T10:12:39.699Z,818.33
2023-05-03T10:13:39.713Z,818.35
2023-05-03T10:14:39.723Z,818.31
2023-05-03T10:15:39.833Z,818.32
2023-05-03T10:16:39.750Z,818.36
2023-05-03T10:18:39.784Z,818.37
2023-05-03T10:19:39.792Z,818.36
2023-05-03T10:20:39.802Z,818.40
2023-05-03T10:21:39.839Z,818.39
2023-05-03T10:22:39.819Z,818.40
2023-05-03T10:23:39.842Z,818.43
2023-05-03T10:24:39.846Z,818.45
2023-05-03T10:25:39.880Z,818.40
2023-05-03T10:26:39.867Z,818.39
2023-05-03T10:27:39.877Z,818.41
2023-05-03T10:28:39.894Z,818.36
2023-05-03T10:29:39.902Z,818.39
2023-05-03T10:30:39.914Z,818.39
2023-05-03T10:31:39.994Z,818.36
2023-05-03T10:32:40.032Z,818.36
2023-05-03T10:33:39.961Z,818.38
2023-05-03T10:34:39.994Z,818.32
2023-05-03T10:35:40.021Z,818.35
2023-05-03T10:36:48.967Z,818.40
2023-05-03T10:37:40.079Z,818.37
2023-05-03T10:38:40.018Z,818.36
2023-05-03T10:39:40.020Z,818.38
2023-05-03T10:40:40.041Z,818.41
2023-05-03T10:41:40.050Z,818.40
2023-05-03T10:42:40.091Z,818.38
2023-05-03T10:43:40.081Z,818.39
2023-05-03T10:44:40.099Z,818.42
2023-05-03T10:45:40.102Z,818.38
2023-05-03T10:46:40.191Z,818.43
2023-05-03T10:47:40.163Z,818.40
2023-05-03T10:48:40.139Z,818.42
2023-05-03T10:49:40.160Z,818.44
2023-05-03T10:50:40.181Z,818.41
2023-05-03T10:51:40.206Z,818.47
2023-05-03T10:52:40.195Z,818.36
2023-05-03T10:53:40.227Z,818.38
2023-05-03T10:54:40.240Z,818.39
2023-05-03T10:55:40.229Z,818.32
2023-05-03T10:56:40.245Z,818.35
2023-05-03T10:57:40.596Z,818.42
2023-05-03T10:58:40.279Z,818.36
2023-05-03T10:59:40.289Z,818.37
2023-05-03T11:00:40.300Z,818.39
2023-05-03T11:01:40.359Z,818.34
2023-05-03T11:02:40.358Z,818.30
2023-05-03T11:03:40.348Z,818.33
2023-05-03T11:04:40.395Z,818.37
2023-05-03T11:05:40.372Z,818.39
2023-05-03T11:06:40.420Z,818.34
2023-05-03T11:07:40.391Z,818.43
2023-05-03T11:08:40.407Z,818.42
2023-05-03T11:09:40.440Z,818.43
2023-05-03T11:10:40.446Z,818.41
2023-05-03T11:11:40.444Z,818.46
2023-05-03T11:12:40.459Z,818.41
2023-05-03T11:13:40.530Z,818.45
2023-05-03T11:14:40.532Z,818.48
2023-05-03T11:15:40.500Z,818.42
2023-05-03T11:16:40.630Z,818.48
2023-05-03T11:17:40.582Z,818.44
2023-05-03T11:18:40.547Z,818.41
2023-05-03T11:19:40.557Z,818.44
2023-05-03T11:20:40.578Z,818.43
2023-05-03T11:21:40.591Z,818.41
2023-05-03T11:22:40.603Z,818.45
2023-05-03T11:23:40.615Z,818.42
2023-05-03T11:24:40.637Z,818.45
2023-05-03T11:25:40.687Z,818.40
2023-05-03T11:26:40.663Z,818.46
2023-05-03T11:27:40.678Z,818.42
2023-05-03T11:28:40.689Z,818.46
2023-05-03T11:29:40.711Z,818.41
2023-05-03T11:30:40.715Z,818.46
2023-05-03T11:31:40.772Z,818.48
2023-05-03T11:32:40.775Z,818.46
2023-05-03T11:33:40.764Z,818.46
2023-05-03T11:34:40.770Z,818.49
2023-05-03T11:35:40.790Z,818.53
2023-05-03T11:36:40.802Z,818.52
2023-05-03T11:37:40.816Z,818.51
2023-05-03T11:38:40.829Z,818.54
2023-05-03T11:39:40.851Z,818.54
2023-05-03T11:40:40.863Z,818.52
2023-05-03T11:41:40.902Z,818.51
2023-05-03T11:42:40.891Z,818.45
2023-05-03T11:43:40.903Z,818.50
2023-05-03T11:44:40.947Z,818.53
2023-05-03T11:45:41.084Z,818.53
2023-05-03T11:46:41.011Z,818.51
2023-05-03T11:47:40.977Z,818.52
2023-05-03T11:48:40.986Z,818.51
2023-05-03T11:49:41.047Z,818.53
2023-05-03T11:50:41.017Z,818.53
2023-05-03T11:51:41.028Z,818.55
2023-05-03T11:52:41.036Z,818.54
2023-05-03T11:53:41.255Z,818.54
2023-05-03T11:54:41.067Z,818.52
2023-05-03T11:55:41.093Z,818.53
2023-05-03T11:56:41.104Z,818.58
2023-05-03T11:57:41.139Z,818.62
2023-05-03T11:58:41.137Z,818.56
2023-05-03T11:59:41.226Z,818.56
2023-05-03T12:00:41.192Z,818.57
2023-05-03T12:01:41.249Z,818.58
2023-05-03T12:02:41.446Z,818.58
2023-05-03T12:03:41.417Z,818.62
2023-05-03T12:04:41.906Z,818.60
2023-05-03T12:05:41.677Z,818.58
2023-05-03T12:06:43.721Z,818.56
2023-05-03T12:07:41.721Z,818.57
2023-05-03T12:08:43.169Z,818.56
2023-05-03T12:09:43.556Z,818.60
2023-05-03T12:10:42.915Z,818.57
2023-05-03T12:11:43.544Z,818.57
2023-05-03T12:12:46.530Z,818.59
2023-05-03T12:13:41.778Z,818.61
2023-05-03T12:14:41.961Z,818.57
2023-05-03T12:15:43.468Z,818.55
2023-05-03T12:16:41.490Z,818.63
2023-05-03T12:17:44.480Z,818.54
2023-05-03T12:18:41.676Z,818.56
2023-05-03T12:19:43.830Z,818.55
2023-05-03T12:21:42.505Z,818.53
2023-05-03T12:22:43.645Z,818.57
2023-05-03T12:23:41.656Z,818.53
2023-05-03T12:24:44.601Z,818.51
2023-05-03T12:25:44.353Z,818.50
2023-05-03T12:26:42.525Z,818.50
2023-05-03T12:27:41.679Z,818.52
2023-05-03T12:28:41.679Z,818.51
2023-05-03T12:29:42.179Z,818.53
2023-05-03T12:30:41.739Z,818.52